Time;durP1;ratioP1;P1;durP2;ratioP2;P2;SDS_P1;SDS_P2;PMS_P1;PMS_P2;Temp;Humidity;BMP_temperature;BMP_pressure;BME280_temperature;BME280_humidity;BME280_pressure;Samples;Min_cycle;Max_cycle;Signal;HPM_P1;HPM_P2
2022/11/07 07:45:03;;;;;;;23.52;3.17;;;;;;;19.54;nan;99152.75;5474940;23;20061;-95
2022/11/07 07:47:31;;;;;;;20.08;2.70;;;;;;;19.78;nan;99162.16;4881579;29;20048;-96
2022/11/07 07:50:00;;;;;;;21.83;2.95;;;;;;;19.59;nan;99160.19;4881393;29;20021;-96
2022/11/07 07:52:34;;;;;;;29.88;3.97;;;;;;;19.45;nan;99155.75;4883024;29;20029;-96
2022/11/07 07:55:03;;;;;;;45.75;5.70;;;;;;;18.92;nan;99172.88;4882899;29;20037;-96
2022/11/07 07:57:29;;;;;;;29.15;4.90;;;;;;;18.62;nan;99162.28;4881295;29;20037;-96
2022/11/07 07:59:54;;;;;;;28.55;4.13;;;;;;;19.14;nan;99165.72;4881525;29;20503;-94
2022/11/07 08:02:20;;;;;;;26.98;4.97;;;;;;;19.37;nan;99160.22;4881807;29;20147;-96
2022/11/07 08:04:46;;;;;;;24.58;4.15;;;;;;;19.52;nan;99157.44;4880874;29;20029;-96
2022/11/07 08:07:11;;;;;;;35.97;5.68;;;;;;;20.20;nan;99167.53;4881408;29;20089;-94
2022/11/07 08:09:37;;;;;;;22.48;4.03;;;;;;;20.14;nan;99174.50;4880584;29;20021;-96
2022/11/07 08:12:04;;;;;;;21.63;3.22;;;;;;;19.91;nan;99172.09;4881698;29;20033;-94
2022/11/07 08:14:33;;;;;;;15.90;3.47;;;;;;;20.17;nan;99167.94;4877831;29;20036;-96
2022/11/07 08:16:59;;;;;;;23.73;4.80;;;;;;;20.07;nan;99170.97;4881314;29;20025;-95
2022/11/07 08:19:25;;;;;;;25.52;4.93;;;;;;;19.96;nan;99182.16;4883727;29;20040;-95
2022/11/07 08:21:54;;;;;;;26.48;4.38;;;;;;;19.77;nan;99163.19;4880914;29;20055;-96
2022/11/07 08:24:20;;;;;;;33.25;3.47;;;;;;;19.74;nan;99174.22;4880144;29;20033;-94
2022/11/07 08:26:45;;;;;;;31.67;4.13;;;;;;;19.61;nan;99177.59;4879815;29;20493;-94
2022/11/07 08:29:11;;;;;;;25.83;4.20;;;;;;;19.67;nan;99172.50;4880729;29;20147;-94
2022/11/07 08:31:52;;;;;;;24.77;4.32;;;;;;;19.85;nan;99180.88;4891286;29;20021;-96
2022/11/07 08:34:17;;;;;;;32.35;5.18;;;;;;;20.04;nan;99166.03;4861402;29;20497;-94
2022/11/07 08:36:46;;;;;;;27.92;3.35;;;;;;;19.20;nan;99162.28;4875858;29;20025;-96
2022/11/07 08:39:14;;;;;;;30.80;3.58;;;;;;;19.53;nan;99179.56;4879969;29;20061;-96
2022/11/07 08:41:40;;;;;;;23.20;3.92;;;;;;;19.37;nan;99181.50;4879460;29;20025;-95
2022/11/07 08:44:10;;;;;;;21.63;3.28;;;;;;;19.59;nan;99186.81;4878948;29;20057;-94
2022/11/07 08:47:05;;;;;;;17.95;3.42;;;;;;;19.14;nan;99176.38;4880917;29;20040;-96
2022/11/07 08:49:31;;;;;;;20.67;3.53;;;;;;;20.06;nan;99182.63;4880706;29;20052;-96
2022/11/07 08:51:57;;;;;;;17.70;3.00;;;;;;;19.96;nan;99167.03;4878974;29;20119;-96
2022/11/07 08:54:24;;;;;;;21.23;3.78;;;;;;;20.13;nan;99185.34;4878672;29;20033;-95
2022/11/07 08:56:53;;;;;;;21.85;3.60;;;;;;;19.20;nan;99191.56;4880979;29;20033;-96
2022/11/07 08:59:28;;;;;;;;;;;;;;;;;;;;;
2022/11/07 09:01:55;;;;;;;18.52;3.17;;;;;;;19.53;nan;99192.88;4876849;29;20039;-96
2022/11/07 09:04:23;;;;;;;17.92;2.78;;;;;;;19.66;nan;99187.66;4879508;29;20483;-96
2022/11/07 09:06:51;;;;;;;21.40;4.05;;;;;;;18.41;nan;99186.97;4862408;29;20403;-96
2022/11/07 09:09:17;;;;;;;16.75;2.63;;;;;;;20.00;nan;99189.59;4861107;29;20033;-96
2022/11/07 09:11:43;;;;;;;16.85;3.22;;;;;;;19.56;nan;99195.16;4871412;29;20027;-95
2022/11/07 09:14:11;;;;;;;19.98;2.60;;;;;;;19.17;nan;99188.44;4877974;29;20053;-96
2022/11/07 09:16:42;;;;;;;17.23;2.97;;;;;;;19.64;nan;99192.34;4878740;29;20037;-95
2022/11/07 09:19:13;;;;;;;17.08;2.60;;;;;;;19.82;nan;99186.56;4879580;29;20097;-96
2022/11/07 09:21:50;;;;;;;14.23;2.40;;;;;;;20.35;nan;99184.22;4879683;29;20097;-96
2022/11/07 09:24:15;;;;;;;15.05;2.78;;;;;;;19.88;nan;99184.97;4896815;29;20068;-96
2022/11/07 09:26:50;;;;;;;18.73;3.33;;;;;;;20.59;nan;99174.94;4880191;29;20060;-95
2022/11/07 09:29:16;;;;;;;16.98;2.58;;;;;;;19.07;nan;99182.63;4879620;29;20056;-96
2022/11/07 09:31:43;;;;;;;17.00;2.50;;;;;;;19.57;nan;99173.69;4879251;29;20043;-96
2022/11/07 09:34:09;;;;;;;15.30;2.55;;;;;;;20.06;nan;99173.81;4879058;29;20068;-96
2022/11/07 09:36:35;;;;;;;10.23;2.45;;;;;;;19.07;nan;99186.09;4879513;29;20112;-95
2022/11/07 09:39:01;;;;;;;14.18;2.53;;;;;;;20.12;nan;99189.88;4880985;29;20032;-96
2022/11/07 09:41:42;;;;;;;15.50;2.95;;;;;;;19.46;nan;99186.69;4883822;29;20063;-95
2022/11/07 09:44:20;;;;;;;13.07;2.60;;;;;;;19.89;nan;99195.44;4882932;29;20021;-95
2022/11/07 09:47:00;;;;;;;12.95;2.15;;;;;;;20.19;nan;99196.03;4882167;29;20037;-94
2022/11/07 09:49:39;;;;;;;12.85;2.20;;;;;;;20.27;nan;99207.56;4882396;29;20032;-96
2022/11/07 09:52:14;;;;;;;15.57;2.70;;;;;;;19.74;nan;99197.38;4882880;29;20021;-95
2022/11/07 09:54:45;;;;;;;15.38;3.50;;;;;;;19.57;nan;99199.50;4882787;29;20021;-94
2022/11/07 09:57:17;;;;;;;19.00;3.92;;;;;;;19.42;nan;99216.34;4883178;29;20432;-94
2022/11/07 09:59:57;;;;;;;22.38;4.03;;;;;;;19.97;nan;99207.81;4882772;29;20029;-92
2022/11/07 10:02:29;;;;;;;22.23;4.07;;;;;;;20.56;nan;99196.66;4882072;29;20020;-94
2022/11/07 10:04:57;;;;;;;17.48;3.65;;;;;;;20.69;nan;99216.41;4882300;29;20123;-94
2022/11/07 10:07:35;;;;;;;22.83;3.45;;;;;;;19.60;nan;99212.41;4881848;29;20084;-96
2022/11/07 10:10:27;;;;;;;15.38;3.58;;;;;;;20.48;nan;99202.16;4882726;29;20120;-95
2022/11/07 10:13:04;;;;;;;21.98;4.43;;;;;;;20.01;nan;99219.72;4881874;29;20029;-94
2022/11/07 10:15:57;;;;;;;14.05;3.20;;;;;;;19.96;nan;99222.13;4881239;29;20115;-94
2022/11/07 10:18:46;;;;;;;16.45;3.58;;;;;;;20.83;nan;99211.97;4894724;29;20040;-96
2022/11/07 10:21:24;;;;;;;14.10;3.35;;;;;;;19.96;nan;99227.44;4889517;29;20047;-95
2022/11/07 10:24:14;;;;;;;21.65;3.35;;;;;;;19.57;nan;99223.44;4882281;29;20028;-95
2022/11/07 10:26:43;;;;;;;24.30;4.15;;;;;;;19.75;nan;99212.34;4887505;29;20628;-96
2022/11/07 10:29:14;;;;;;;21.85;3.25;;;;;;;19.91;nan;99228.03;4880239;29;20025;-95
2022/11/07 10:32:04;;;;;;;17.00;3.42;;;;;;;20.34;nan;99229.75;4881071;29;20039;-94
2022/11/07 10:35:10;;;;;;;25.67;3.75;;;;;;;19.92;nan;99215.53;4880349;29;20045;-95
2022/11/07 10:37:35;;;;;;;27.58;4.30;;;;;;;20.70;nan;99212.75;4885071;29;20041;-96
2022/11/07 10:40:01;;;;;;;23.70;4.03;;;;;;;20.20;nan;99218.19;4881566;29;20388;-95
2022/11/07 10:42:30;;;;;;;18.95;3.75;;;;;;;20.00;nan;99215.38;4881588;29;20061;-95
2022/11/07 10:44:57;;;;;;;20.45;3.67;;;;;;;20.57;nan;99226.78;4872147;29;20097;-96
2022/11/07 10:47:31;;;;;;;21.13;4.35;;;;;;;22.05;nan;99218.88;4864828;29;20056;-96
2022/11/07 10:50:18;;;;;;;17.17;4.22;;;;;;;23.12;nan;99218.56;4885354;29;20033;-95
2022/11/07 10:53:28;;;;;;;20.67;3.55;;;;;;;23.04;nan;99208.91;4886062;29;20500;-96
2022/11/07 10:55:55;;;;;;;17.90;3.95;;;;;;;23.06;nan;99204.16;4830226;29;20041;-96
2022/11/07 11:01:54;;;;;;;;;;;;;;;22.08;nan;99226.50;4862165;29;20135;-95
2022/11/07 11:04:34;;;;;;;14.50;3.08;;;;;;;21.72;nan;99189.53;4872228;29;20006;-96
2022/11/07 11:07:13;;;;;;;19.45;3.28;;;;;;;21.38;nan;99194.81;4881342;29;20034;-96
2022/11/07 11:10:17;;;;;;;17.35;3.28;;;;;;;22.11;nan;99199.34;4871705;29;20491;-96
2022/11/07 11:12:54;;;;;;;19.83;3.13;;;;;;;21.04;nan;99213.66;4867481;29;20102;-96
2022/11/07 11:15:27;;;;;;;16.77;4.07;;;;;;;21.83;nan;99210.28;4884863;29;20032;-95
2022/11/07 11:18:10;;;;;;;11.38;3.05;;;;;;;20.97;nan;99194.97;4885624;29;20045;-96
2022/11/07 11:24:32;;;;;;;12.23;2.53;;;;;;;20.44;nan;99184.06;4884836;29;20497;-96
2022/11/07 11:27:06;;;;;;;19.17;3.30;;;;;;;20.13;nan;99186.16;4884880;29;20044;-96
2022/11/07 11:30:27;;;;;;;13.40;2.95;;;;;;;21.30;nan;99187.00;4882241;29;20403;-96
2022/11/07 11:33:33;;;;;;;17.02;3.90;;;;;;;21.40;nan;99186.63;4882239;29;20037;-96
2022/11/07 11:36:05;;;;;;;19.20;3.80;;;;;;;21.48;nan;99180.28;4883077;29;20041;-96
2022/11/07 11:38:38;;;;;;;22.65;3.90;;;;;;;20.67;nan;99171.28;4881444;29;20021;-96
2022/11/07 11:41:15;;;;;;;16.90;2.85;;;;;;;21.45;nan;99162.84;4880308;29;20033;-96
2022/11/07 11:44:15;;;;;;;17.80;3.38;;;;;;;20.34;nan;99163.09;4870197;29;20025;-96
2022/11/07 11:47:30;;;;;;;;;;;;;;;;;;;;;
2022/11/07 11:50:21;;;;;;;16.38;2.85;;;;;;;21.15;nan;99167.72;4866076;29;20160;-96
2022/11/07 11:53:17;;;;;;;15.02;3.78;;;;;;;20.76;nan;99163.94;4863075;29;20026;-96
2022/11/07 11:56:19;;;;;;;22.48;4.13;;;;;;;20.48;nan;99166.66;4888854;29;20060;-96
2022/11/07 11:59:21;;;;;;;20.50;3.90;;;;;;;20.37;nan;99178.72;4885725;29;20060;-96
2022/11/07 12:02:15;;;;;;;24.27;3.83;;;;;;;20.47;nan;99165.84;4882198;29;20037;-96
2022/11/07 12:05:18;;;;;;;20.40;3.58;;;;;;;19.73;nan;99161.94;4884433;29;20033;-96
2022/11/07 12:08:08;;;;;;;27.25;4.22;;;;;;;20.50;nan;99157.44;4884255;29;20048;-96
2022/11/07 12:15:15;;;;;;;;;;;;;;;;;;;;;
2022/11/07 12:17:41;;;;;;;34.20;5.65;;;;;;;20.13;nan;99158.72;4870513;29;20044;-95
2022/11/07 12:20:27;;;;;;;26.60;3.65;;;;;;;18.53;nan;99138.66;4884525;29;20032;-96
2022/11/07 12:23:27;;;;;;;20.45;3.92;;;;;;;20.52;nan;99147.41;4873892;29;20040;-96
2022/11/07 12:26:22;;;;;;;25.10;4.80;;;;;;;19.73;nan;99147.81;4955127;23;20148;-96
2022/11/07 12:29:11;;;;;;;16.42;3.17;;;;;;;19.68;nan;99158.19;4860276;29;20042;-96
2022/11/07 12:32:06;;;;;;;19.67;3.17;;;;;;;20.64;nan;99145.00;4865172;29;20030;-96
2022/11/07 12:38:39;;;;;;;;;;;;;;;;;;;;;
2022/11/07 12:41:16;;;;;;;24.77;4.22;;;;;;;18.99;nan;99152.47;4869626;29;20116;-96
2022/11/07 12:44:49;;;;;;;30.58;5.60;;;;;;;20.44;nan;99114.75;4867911;29;20572;-96
2022/11/07 12:47:36;;;;;;;26.27;5.05;;;;;;;20.44;nan;99115.59;4853842;29;20034;-96
2022/11/07 12:50:45;;;;;;;;;;;;;;;;;;;;;
2022/11/07 12:57:07;;;;;;;33.70;5.50;;;;;;;20.15;nan;99116.69;4857870;29;20489;-96
2022/11/07 12:59:51;;;;;;;56.17;7.75;;;;;;;20.59;nan;99110.13;4852938;29;20041;-96
2022/11/07 13:02:34;;;;;;;42.13;8.60;;;;;;;19.72;nan;99114.19;4852325;29;20046;-96
2022/11/07 13:05:56;;;;;;;37.92;7.65;;;;;;;19.71;nan;99140.00;4868405;29;20034;-96
2022/11/07 13:08:57;;;;;;;39.15;6.15;;;;;;;20.53;nan;99125.03;4851994;29;20041;-96
2022/11/07 13:11:44;;;;;;;44.30;8.88;;;;;;;20.32;nan;99122.50;4887741;29;20417;-96
2022/11/07 13:14:58;;;;;;;;;;;;;;;;;;;;;
2022/11/07 13:17:40;;;;;;;43.58;6.68;;;;;;;21.15;nan;99109.00;4875200;29;20108;-96
2022/11/07 13:20:26;;;;;;;;;;;;;;;20.91;nan;99107.72;4875866;29;20039;-96
2022/11/07 13:23:27;;;;;;;37.58;7.10;;;;;;;20.36;nan;99105.94;4879669;29;19912;-96
2022/11/07 13:26:12;;;;;;;39.63;7.30;;;;;;;21.08;nan;99103.63;4863250;29;20057;-96
2022/11/07 13:29:14;;;;;;;42.25;6.90;;;;;;;21.60;nan;99095.84;4880426;29;20038;-96
2022/11/07 13:32:14;;;;;;;46.35;7.75;;;;;;;20.81;nan;99094.78;4894266;29;20039;-96
2022/11/07 13:35:53;;;;;;;44.60;7.30;;;;;;;20.23;nan;99095.19;4880954;29;20048;-96
2022/11/07 13:38:51;;;;;;;39.97;6.97;;;;;;;21.09;nan;99097.28;4882097;29;20046;-96
2022/11/07 13:41:18;;;;;;;54.00;8.45;;;;;;;19.58;nan;99091.97;4855726;29;20130;-96
2022/11/07 13:44:28;;;;;;;47.75;7.97;;;;;;;20.23;nan;99079.22;4871882;29;20498;-96
2022/11/07 13:47:28;;;;;;;;;;;;;;;;;;;;;
2022/11/07 13:50:33;;;;;;;60.92;7.78;;;;;;;20.01;nan;99083.84;4870082;29;20109;-96
2022/11/07 13:53:22;;;;;;;;;;;;;;;;;;;;;
2022/11/07 13:56:29;;;;;;;44.72;7.28;;;;;;;21.03;nan;99091.94;4870385;29;20077;-96
2022/11/07 13:59:30;;;;;;;51.88;8.02;;;;;;;19.93;nan;99086.66;4868642;29;20033;-96
2022/11/07 14:02:09;;;;;;;44.08;7.80;;;;;;;20.31;nan;99083.56;4854079;29;20038;-96
2022/11/07 14:05:05;;;;;;;48.40;7.88;;;;;;;19.66;nan;99077.66;4869198;29;20034;-96
2022/11/07 14:08:01;;;;;;;46.03;7.30;;;;;;;20.13;nan;99073.44;4875357;29;20041;-96
2022/11/07 14:11:19;;;;;;;59.30;9.13;;;;;;;20.71;nan;99081.00;4842342;29;20038;-96
2022/11/07 14:14:00;;;;;;;50.83;9.57;;;;;;;19.63;nan;99084.22;4857743;29;20041;-96
2022/11/07 14:20:22;;;;;;;46.22;6.68;;;;;;;21.15;nan;99074.31;4880210;29;19900;-96
2022/11/07 14:23:56;;;;;;;;;;;;;;;;;;;;;
2022/11/07 14:27:04;;;;;;;55.45;8.60;;;;;;;20.28;nan;99062.63;4867588;29;20069;-96
2022/11/07 14:30:12;;;;;;;58.50;8.55;;;;;;;19.52;nan;99063.44;4894461;29;20048;-96
2022/11/07 14:32:51;;;;;;;36.58;7.20;;;;;;;19.21;nan;99083.28;4877275;29;20097;-96
2022/11/07 14:35:29;;;;;;;38.63;7.88;;;;;;;19.34;nan;99106.53;4892902;29;20025;-95
2022/11/07 14:38:31;;;;;;;45.85;8.50;;;;;;;19.89;nan;99096.06;4870398;29;20120;-95
2022/11/07 14:41:00;;;;;;;43.57;6.93;;;;;;;19.53;nan;99071.25;4882437;29;20049;-96
2022/11/07 14:43:30;;;;;;;43.28;6.97;;;;;;;20.56;nan;99089.97;4873297;29;20021;-95
2022/11/07 14:46:03;;;;;;;40.35;7.38;;;;;;;19.61;nan;99070.28;4872776;29;20025;-95
2022/11/07 14:48:29;;;;;;;42.10;6.85;;;;;;;20.40;nan;99085.03;4873388;29;20524;-94
2022/11/07 14:50:59;;;;;;;53.13;9.02;;;;;;;19.85;nan;99050.38;4874079;29;20032;-96
2022/11/07 14:53:36;;;;;;;51.15;8.07;;;;;;;20.66;nan;99040.81;4874749;29;20037;-94
2022/11/07 14:56:07;;;;;;;42.92;7.32;;;;;;;20.47;nan;99045.03;4873902;29;20497;-96
2022/11/07 14:58:32;;;;;;;50.08;7.88;;;;;;;20.33;nan;99038.84;4872962;29;20062;-95
2022/11/07 15:01:15;;;;;;;46.20;7.43;;;;;;;20.19;nan;99041.47;4870077;29;20029;-96
2022/11/07 15:04:32;;;;;;;47.60;8.13;;;;;;;20.57;nan;99048.94;4875534;29;20095;-94
2022/11/07 15:07:32;;;;;;;36.00;8.23;;;;;;;19.72;nan;99047.63;4873311;29;20072;-96
2022/11/07 15:10:15;;;;;;;44.55;7.75;;;;;;;20.17;nan;99040.03;4876221;29;20030;-96
2022/11/07 15:13:38;;;;;;;;;;;;;;;;;;;;;
2022/11/07 15:16:38;;;;;;;41.78;7.50;;;;;;;20.94;nan;99028.09;4873450;29;20108;-96
2022/11/07 15:19:38;;;;;;;40.88;6.68;;;;;;;20.49;nan;99027.81;4868687;29;20041;-96
2022/11/07 15:22:41;;;;;;;48.20;7.53;;;;;;;19.75;nan;99024.09;4867137;29;20041;-96
2022/11/07 15:25:43;;;;;;;50.65;9.30;;;;;;;19.74;nan;99027.75;4863897;29;20049;-96
2022/11/07 15:28:42;;;;;;;40.95;7.05;;;;;;;20.42;nan;99035.00;4867658;29;20041;-96
2022/11/07 15:31:29;;;;;;;43.00;9.13;;;;;;;20.30;nan;99016.09;4866662;29;20133;-96
2022/11/07 15:34:15;;;;;;;41.28;7.32;;;;;;;21.34;nan;99004.03;4867596;29;20130;-96
2022/11/07 15:37:12;;;;;;;39.53;7.18;;;;;;;20.76;nan;99017.22;4879379;29;20048;-96
2022/11/07 15:40:25;;;;;;;;;;;;;;;;;;;;;
2022/11/07 15:43:30;;;;;;;;;;;;;;;;;;;;;
2022/11/07 15:50:07;;;;;;;39.17;7.43;;;;;;;20.63;nan;98998.53;4848950;29;20037;-96
2022/11/07 15:56:28;;;;;;;;;;;;;;;;;;;;;
2022/11/07 15:59:16;;;;;;;41.13;5.82;;;;;;;20.07;nan;98989.78;4870656;29;20125;-96
2022/11/07 16:02:24;;;;;;;49.20;8.25;;;;;;;19.92;nan;98976.59;4875057;29;20077;-96
2022/11/07 16:05:10;;;;;;;28.00;6.03;;;;;;;19.52;nan;98979.09;4875201;29;20106;-96
2022/11/07 16:08:01;;;;;;;30.85;5.38;;;;;;;18.99;nan;98982.22;4857855;29;20066;-96
2022/11/07 16:10:54;;;;;;;31.50;6.18;;;;;;;19.99;nan;98987.31;4864020;29;20041;-96
2022/11/07 16:13:23;;;;;;;33.35;5.72;;;;;;;18.90;nan;98991.38;4879996;29;20035;-96
2022/11/07 16:15:58;;;;;;;33.53;5.97;;;;;;;19.44;nan;98983.75;4878315;29;20042;-96
2022/11/07 16:18:39;;;;;;;38.42;5.80;;;;;;;19.20;nan;98993.84;4876719;29;20097;-96
2022/11/07 16:21:24;;;;;;;38.78;6.35;;;;;;;18.92;nan;98953.97;4879969;29;20117;-96
2022/11/07 16:27:08;;;;;;;39.58;6.40;;;;;;;18.70;nan;98993.00;4877112;29;20504;-96
2022/11/07 16:29:43;;;;;;;48.22;8.02;;;;;;;18.77;nan;98978.75;4887405;29;20049;-96
2022/11/07 16:32:21;;;;;;;37.88;5.80;;;;;;;19.26;nan;98998.38;4877387;29;20128;-96
2022/11/07 16:35:17;;;;;;;38.05;7.85;;;;;;;18.52;nan;98988.16;4875525;29;20085;-96
2022/11/07 16:37:48;;;;;;;42.20;6.75;;;;;;;18.96;nan;98977.31;4873220;29;20033;-96
2022/11/07 16:44:21;;;;;;;38.13;5.85;;;;;;;19.48;nan;98993.00;4864738;29;20037;-96
2022/11/07 16:47:49;;;;;;;;;;;;;;;;;;;;;
2022/11/07 16:50:38;;;;;;;43.53;5.78;;;;;;;19.65;nan;98965.03;4905550;29;20080;-96
2022/11/07 16:53:24;;;;;;;;;;;;;;;;;;;;;
2022/11/07 16:56:38;;;;;;;36.50;5.38;;;;;;;20.04;nan;98968.84;4877838;29;20045;-96
2022/11/07 16:59:21;;;;;;;44.45;7.78;;;;;;;19.53;nan;98969.25;4874653;29;20484;-96
2022/11/07 17:02:20;;;;;;;41.33;6.90;;;;;;;18.92;nan;98964.59;4867145;29;20033;-96
2022/11/07 17:05:15;;;;;;;42.83;6.03;;;;;;;19.55;nan;98961.88;4864451;29;20042;-96
2022/11/07 17:07:54;;;;;;;33.92;6.35;;;;;;;20.35;nan;98965.66;4860787;29;20101;-96
2022/11/07 17:10:51;;;;;;;34.35;6.13;;;;;;;19.55;nan;98972.53;4860272;29;20062;-96
2022/11/07 17:16:55;;;;;;;31.25;5.32;;;;;;;20.54;nan;98963.22;4836370;29;20038;-96
2022/11/07 17:19:52;;;;;;;36.72;6.47;;;;;;;19.03;nan;98978.16;4858261;29;20038;-96
2022/11/07 17:22:36;;;;;;;49.28;5.75;;;;;;;19.46;nan;98971.88;4846417;29;20038;-96
2022/11/07 17:25:58;;;;;;;;;;;;;;;;;;;;;
2022/11/07 17:28:43;;;;;;;30.55;5.13;;;;;;;19.41;nan;98945.88;4860153;29;20069;-96
2022/11/07 17:31:45;;;;;;;31.52;4.43;;;;;;;19.48;nan;98931.78;4890854;29;20042;-96
2022/11/07 21:07:22;;;;;;;18.23;3.63;;;;;;;18.68;nan;98751.31;1105667;23;20306;-95
2022/11/07 21:09:56;;;;;;;23.73;3.72;;;;;;;19.69;nan;98745.25;4858137;29;20068;-96
2022/11/07 21:12:22;;;;;;;29.17;4.15;;;;;;;18.36;nan;98720.84;4843790;29;20050;-96
2022/11/07 21:14:57;;;;;;;12.95;2.70;;;;;;;19.02;nan;98721.19;4843858;29;20040;-96
2022/11/07 21:17:31;;;;;;;24.15;3.60;;;;;;;18.78;nan;98719.03;4850546;29;20050;-96
2022/11/07 21:20:03;;;;;;;23.10;3.15;;;;;;;19.33;nan;98701.22;4846281;29;20050;-95
2022/11/07 21:22:40;;;;;;;29.50;5.10;;;;;;;18.83;nan;98704.13;4846256;29;20033;-96
2022/11/07 21:35:31;;;;;;;20.75;3.10;;;;;;;19.39;nan;98683.59;4874373;27;20021;-94
2022/11/07 21:47:24;;;;;;;14.00;2.55;;;;;;;18.58;nan;98671.91;4954529;23;20061;-95
2022/11/07 21:55:12;;;;;;;15.73;3.17;;;;;;;18.90;nan;98629.72;4936144;23;20425;-96
2022/11/07 21:57:54;;;;;;;30.75;3.85;;;;;;;18.82;nan;98627.25;4878904;29;20030;-96
2022/11/07 22:00:22;;;;;;;18.05;2.72;;;;;;;18.46;nan;98630.97;4880234;29;20081;-96
2022/11/07 22:03:39;;;;;;;;;;;;;;;;;;;;;
2022/11/07 22:08:56;;;;;;;21.42;2.97;;;;;;;18.51;nan;98627.72;5151935;23;20032;-96
2022/11/07 22:14:06;;;;;;;23.55;2.83;;;;;;;18.66;nan;98590.34;5035546;24;20057;-96
2022/11/07 22:16:52;;;;;;;22.58;3.70;;;;;;;18.60;nan;98602.59;4880383;29;20038;-96
2022/11/07 22:19:24;;;;;;;26.10;3.92;;;;;;;18.83;nan;98595.13;4880819;29;20025;-96
2022/11/07 22:21:52;;;;;;;20.48;3.97;;;;;;;18.01;nan;98569.50;4879378;29;20041;-96
2022/11/07 22:24:22;;;;;;;13.20;2.65;;;;;;;18.94;nan;98548.50;4870154;29;20029;-96
2022/11/07 22:26:48;;;;;;;14.73;3.17;;;;;;;18.90;nan;98541.97;4867509;29;20093;-96
2022/11/07 22:29:16;;;;;;;20.17;3.05;;;;;;;20.46;nan;98548.38;4871007;29;20124;-96
2022/11/07 22:31:47;;;;;;;16.13;2.83;;;;;;;21.04;nan;98528.72;4867131;29;20384;-96
2022/11/07 22:34:16;;;;;;;19.88;3.88;;;;;;;21.20;nan;98530.00;4870920;29;20427;-96
2022/11/07 22:36:41;;;;;;;19.48;4.00;;;;;;;20.76;nan;98532.63;4869405;29;20278;-96
2022/11/07 22:39:07;;;;;;;20.67;3.80;;;;;;;22.20;nan;98528.97;4867089;29;20278;-94
2022/11/07 22:41:33;;;;;;;27.27;3.42;;;;;;;21.13;nan;98527.41;4872787;29;20029;-96
2022/11/07 22:44:01;;;;;;;19.25;3.05;;;;;;;21.42;nan;98513.59;4868039;29;20093;-96
2022/11/07 22:46:36;;;;;;;14.82;3.20;;;;;;;20.68;nan;98500.88;4880458;29;20034;-96
2022/11/07 22:49:05;;;;;;;18.83;3.95;;;;;;;19.18;nan;98507.16;4868666;29;20071;-96
2022/11/07 22:51:36;;;;;;;20.73;3.42;;;;;;;20.29;nan;98501.91;4866871;29;20033;-93
2022/11/07 22:54:21;;;;;;;26.50;4.43;;;;;;;19.42;nan;98500.38;4869775;29;20076;-96
2022/11/07 22:56:46;;;;;;;18.50;3.53;;;;;;;15.44;nan;98490.59;4868402;29;20038;-96
2022/11/07 22:59:12;;;;;;;21.10;4.47;;;;;;;14.82;nan;98517.28;4863841;29;20040;-91
2022/11/07 23:01:40;;;;;;;25.88;3.88;;;;;;;15.74;nan;98511.75;4861813;29;20040;-92
2022/11/07 23:04:06;;;;;;;28.05;3.72;;;;;;;15.62;nan;98500.78;4864385;29;20032;-92
2022/11/07 23:06:32;;;;;;;25.42;3.95;;;;;;;16.44;nan;98504.19;4869990;29;20036;-91
2022/11/07 23:08:59;;;;;;;26.58;3.67;;;;;;;17.86;nan;98494.47;4871092;29;20508;-91
2022/11/07 23:11:30;;;;;;;23.55;4.20;;;;;;;21.82;nan;98529.22;4856521;29;20034;-91
2022/11/07 23:14:00;;;;;;;26.00;4.20;;;;;;;19.76;nan;98522.41;4863089;29;20026;-89
2022/11/07 23:16:31;;;;;;;22.17;4.35;;;;;;;19.76;nan;98522.41;4867572;29;20041;-92
2022/11/07 23:18:57;;;;;;;;;;;;;;;-144.40;100.00;60209.53;4869429;29;20036;-92
2022/11/07 23:21:23;;;;;;;26.35;4.50;;;;;;;-144.40;100.00;60209.53;4882271;29;19920;-93
2022/11/07 23:23:53;;;;;;;27.05;4.68;;;;;;;-144.40;100.00;60209.53;4868408;29;20036;-92
2022/11/07 23:26:19;;;;;;;26.52;4.45;;;;;;;-144.40;100.00;60209.53;4866761;29;20037;-92
2022/11/07 23:28:45;;;;;;;29.27;5.20;;;;;;;-144.40;100.00;60209.53;4865796;29;20484;-91
2022/11/07 23:31:12;;;;;;;22.75;4.70;;;;;;;-144.40;100.00;60209.53;4862869;29;20063;-90
2022/11/07 23:33:38;;;;;;;15.55;3.47;;;;;;;-144.40;100.00;60209.53;4849258;29;20033;-91
2022/11/07 23:36:06;;;;;;;26.98;4.43;;;;;;;-144.40;100.00;60209.53;4868080;29;20089;-90
2022/11/07 23:38:32;;;;;;;21.30;3.35;;;;;;;-144.40;100.00;60209.53;4868924;29;20493;-92
2022/11/07 23:41:02;;;;;;;21.00;3.85;;;;;;;-144.40;100.00;60209.53;4869728;29;20173;-92
2022/11/07 23:43:28;;;;;;;28.95;6.30;;;;;;;-144.40;100.00;60209.53;4874729;29;20033;-91
2022/11/07 23:51:24;;;;;;;27.60;4.30;;;;;;;19.14;nan;98426.13;4854268;29;20040;-93
2022/11/07 23:56:33;;;;;;;25.40;4.40;;;;;;;17.66;nan;98433.31;4843305;29;20356;-92
